sensor_id;sensor_type;location;lat;lon;timestamp;pressure;altitude;pressure_sealevel;temperature;humidity
18858;BME280;9558;50.178;8.370;2023-07-13T00:00:33;98173.69;;;16.06;70.40
18858;BME280;9558;50.178;8.370;2023-07-13T00:03:19;98168.28;;;16.08;68.94
18858;BME280;9558;50.178;8.370;2023-07-13T00:06:08;98162.63;;;16.11;69.82
18858;BME280;9558;50.178;8.370;2023-07-13T00:08:55;98167.84;;;16.11;69.35
18858;BME280;9558;50.178;8.370;2023-07-13T00:11:42;98167.44;;;16.14;68.98
18858;BME280;9558;50.178;8.370;2023-07-13T00:14:29;98170.00;;;16.20;69.20
18858;BME280;9558;50.178;8.370;2023-07-13T00:17:16;98171.38;;;16.23;69.01
18858;BME280;9558;50.178;8.370;2023-07-13T00:20:03;98170.91;;;16.33;68.66
18858;BME280;9558;50.178;8.370;2023-07-13T00:22:52;98170.88;;;16.39;68.83
18858;BME280;9558;50.178;8.370;2023-07-13T00:25:39;98172.41;;;16.47;68.75
18858;BME280;9558;50.178;8.370;2023-07-13T00:28:26;98172.34;;;16.54;67.72
18858;BME280;9558;50.178;8.370;2023-07-13T00:31:13;98177.53;;;16.61;67.84
18858;BME280;9558;50.178;8.370;2023-07-13T00:34:00;98178.72;;;16.65;67.75
18858;BME280;9558;50.178;8.370;2023-07-13T00:36:47;98183.28;;;16.69;67.77
18858;BME280;9558;50.178;8.370;2023-07-13T00:39:35;98184.69;;;16.72;67.82
18858;BME280;9558;50.178;8.370;2023-07-13T00:42:22;98191.69;;;16.71;67.67
18858;BME280;9558;50.178;8.370;2023-07-13T00:48:34;98189.94;;;16.65;67.34
18858;BME280;9558;50.178;8.370;2023-07-13T00:51:27;98195.41;;;16.64;67.63
18858;BME280;9558;50.178;8.370;2023-07-13T00:54:17;98193.56;;;16.64;68.42
18858;BME280;9558;50.178;8.370;2023-07-13T00:57:18;98202.41;;;16.63;68.74
18858;BME280;9558;50.178;8.370;2023-07-13T01:00:07;98191.19;;;16.63;68.67
18858;BME280;9558;50.178;8.370;2023-07-13T01:02:54;98204.44;;;16.61;68.75
18858;BME280;9558;50.178;8.370;2023-07-13T01:05:41;98203.66;;;16.61;69.08
18858;BME280;9558;50.178;8.370;2023-07-13T01:08:28;98199.06;;;16.56;69.00
18858;BME280;9558;50.178;8.370;2023-07-13T01:11:18;98198.47;;;16.54;69.25
18858;BME280;9558;50.178;8.370;2023-07-13T01:14:08;98203.13;;;16.52;68.89
18858;BME280;9558;50.178;8.370;2023-07-13T01:16:55;98207.75;;;16.50;69.60
18858;BME280;9558;50.178;8.370;2023-07-13T01:19:45;98204.78;;;16.46;69.13
18858;BME280;9558;50.178;8.370;2023-07-13T01:22:34;98196.97;;;16.39;69.19
18858;BME280;9558;50.178;8.370;2023-07-13T01:25:20;98196.81;;;16.34;69.24
18858;BME280;9558;50.178;8.370;2023-07-13T01:28:08;98195.06;;;16.28;69.46
18858;BME280;9558;50.178;8.370;2023-07-13T01:30:57;98189.84;;;16.21;69.76
18858;BME280;9558;50.178;8.370;2023-07-13T01:33:44;98188.31;;;16.14;69.86
18858;BME280;9558;50.178;8.370;2023-07-13T01:36:30;98180.31;;;16.09;69.72
18858;BME280;9558;50.178;8.370;2023-07-13T01:39:19;98183.97;;;16.01;70.11
18858;BME280;9558;50.178;8.370;2023-07-13T01:42:06;98190.03;;;15.95;70.67
18858;BME280;9558;50.178;8.370;2023-07-13T01:44:53;98194.09;;;15.84;71.13
18858;BME280;9558;50.178;8.370;2023-07-13T01:47:40;98196.50;;;15.79;70.95
18858;BME280;9558;50.178;8.370;2023-07-13T01:50:26;98188.91;;;15.70;71.40
18858;BME280;9558;50.178;8.370;2023-07-13T01:53:13;98182.94;;;15.63;71.51
18858;BME280;9558;50.178;8.370;2023-07-13T01:56:01;98179.53;;;15.56;71.88
18858;BME280;9558;50.178;8.370;2023-07-13T01:58:48;98189.78;;;15.51;72.22
18858;BME280;9558;50.178;8.370;2023-07-13T02:01:35;98192.63;;;15.43;73.05
18858;BME280;9558;50.178;8.370;2023-07-13T02:04:22;98197.06;;;15.35;73.56
18858;BME280;9558;50.178;8.370;2023-07-13T02:07:09;98198.28;;;15.26;73.37
18858;BME280;9558;50.178;8.370;2023-07-13T02:09:55;98184.28;;;15.20;73.16
18858;BME280;9558;50.178;8.370;2023-07-13T02:12:44;98192.69;;;15.16;73.58
18858;BME280;9558;50.178;8.370;2023-07-13T02:15:31;98197.72;;;15.11;73.52
18858;BME280;9558;50.178;8.370;2023-07-13T02:18:17;98196.72;;;15.05;73.91
18858;BME280;9558;50.178;8.370;2023-07-13T02:21:04;98198.53;;;14.98;74.94
18858;BME280;9558;50.178;8.370;2023-07-13T02:23:51;98202.75;;;14.92;74.58
18858;BME280;9558;50.178;8.370;2023-07-13T02:26:38;98200.56;;;14.89;74.95
18858;BME280;9558;50.178;8.370;2023-07-13T02:29:27;98204.56;;;14.85;74.88
18858;BME280;9558;50.178;8.370;2023-07-13T02:32:13;98205.19;;;14.80;75.53
18858;BME280;9558;50.178;8.370;2023-07-13T02:35:00;98208.38;;;14.76;75.45
18858;BME280;9558;50.178;8.370;2023-07-13T02:37:47;98204.56;;;14.72;75.48
18858;BME280;9558;50.178;8.370;2023-07-13T02:40:34;98198.19;;;14.67;75.87
18858;BME280;9558;50.178;8.370;2023-07-13T02:43:21;98204.78;;;14.63;75.89
18858;BME280;9558;50.178;8.370;2023-07-13T02:46:09;98201.53;;;14.61;78.39
18858;BME280;9558;50.178;8.370;2023-07-13T02:48:56;98200.31;;;14.57;76.11
18858;BME280;9558;50.178;8.370;2023-07-13T02:51:43;98213.97;;;14.59;76.50
18858;BME280;9558;50.178;8.370;2023-07-13T02:54:30;98208.75;;;14.59;76.52
18858;BME280;9558;50.178;8.370;2023-07-13T02:57:17;98212.34;;;14.58;77.18
18858;BME280;9558;50.178;8.370;2023-07-13T03:00:05;98206.72;;;14.55;77.39
18858;BME280;9558;50.178;8.370;2023-07-13T03:02:53;98205.94;;;14.54;77.61
18858;BME280;9558;50.178;8.370;2023-07-13T03:05:44;98203.16;;;14.49;78.56
18858;BME280;9558;50.178;8.370;2023-07-13T03:08:35;98207.94;;;14.45;78.70
18858;BME280;9558;50.178;8.370;2023-07-13T03:11:22;98215.13;;;14.37;79.80
18858;BME280;9558;50.178;8.370;2023-07-13T03:14:09;98224.31;;;14.26;79.90
18858;BME280;9558;50.178;8.370;2023-07-13T03:16:56;98217.91;;;14.15;80.13
18858;BME280;9558;50.178;8.370;2023-07-13T03:19:44;98214.69;;;14.06;80.12
18858;BME280;9558;50.178;8.370;2023-07-13T03:22:34;98217.25;;;13.99;80.33
18858;BME280;9558;50.178;8.370;2023-07-13T03:25:21;98216.84;;;13.96;80.67
18858;BME280;9558;50.178;8.370;2023-07-13T03:28:08;98213.84;;;13.92;81.72
18858;BME280;9558;50.178;8.370;2023-07-13T03:30:59;98222.44;;;13.86;84.69
18858;BME280;9558;50.178;8.370;2023-07-13T03:33:47;98227.41;;;13.81;81.83
18858;BME280;9558;50.178;8.370;2023-07-13T03:36:35;98231.78;;;13.74;82.40
18858;BME280;9558;50.178;8.370;2023-07-13T03:39:22;98234.97;;;13.69;83.55
18858;BME280;9558;50.178;8.370;2023-07-13T03:42:09;98244.53;;;13.62;83.05
18858;BME280;9558;50.178;8.370;2023-07-13T03:44:56;98246.09;;;13.56;86.16
18858;BME280;9558;50.178;8.370;2023-07-13T03:47:43;98251.06;;;13.51;84.12
18858;BME280;9558;50.178;8.370;2023-07-13T03:50:29;98254.06;;;13.48;83.19
18858;BME280;9558;50.178;8.370;2023-07-13T03:53:17;98259.25;;;13.48;84.08
18858;BME280;9558;50.178;8.370;2023-07-13T03:56:05;98257.63;;;13.47;83.98
18858;BME280;9558;50.178;8.370;2023-07-13T03:58:52;98258.81;;;13.44;84.36
18858;BME280;9558;50.178;8.370;2023-07-13T04:01:38;98264.41;;;13.41;84.42
18858;BME280;9558;50.178;8.370;2023-07-13T04:04:25;98265.00;;;13.37;84.72
18858;BME280;9558;50.178;8.370;2023-07-13T04:07:12;98261.78;;;13.35;84.75
18858;BME280;9558;50.178;8.370;2023-07-13T04:10:00;98256.50;;;13.28;85.30
18858;BME280;9558;50.178;8.370;2023-07-13T04:12:47;98261.28;;;13.24;85.09
18858;BME280;9558;50.178;8.370;2023-07-13T04:15:34;98253.84;;;13.21;85.99
18858;BME280;9558;50.178;8.370;2023-07-13T04:18:21;98256.25;;;13.16;86.42
18858;BME280;9558;50.178;8.370;2023-07-13T04:21:09;98261.78;;;13.13;86.43
18858;BME280;9558;50.178;8.370;2023-07-13T04:23:55;98255.00;;;13.12;87.18
18858;BME280;9558;50.178;8.370;2023-07-13T04:26:44;98258.00;;;13.16;87.14
18858;BME280;9558;50.178;8.370;2023-07-13T04:29:30;98259.00;;;13.14;87.80
18858;BME280;9558;50.178;8.370;2023-07-13T04:32:17;98255.22;;;13.17;88.01
18858;BME280;9558;50.178;8.370;2023-07-13T04:35:05;98258.44;;;13.19;87.83
18858;BME280;9558;50.178;8.370;2023-07-13T04:37:52;98261.06;;;13.26;88.27
18858;BME280;9558;50.178;8.370;2023-07-13T04:40:38;98248.91;;;13.26;88.24
18858;BME280;9558;50.178;8.370;2023-07-13T04:43:27;98254.31;;;13.31;87.89
18858;BME280;9558;50.178;8.370;2023-07-13T04:46:16;98254.94;;;13.34;88.10
18858;BME280;9558;50.178;8.370;2023-07-13T04:49:04;98252.78;;;13.37;88.16
18858;BME280;9558;50.178;8.370;2023-07-13T04:51:51;98255.19;;;13.39;88.62
18858;BME280;9558;50.178;8.370;2023-07-13T04:54:38;98252.84;;;13.44;88.84
18858;BME280;9558;50.178;8.370;2023-07-13T04:57:25;98242.03;;;13.47;88.48
18858;BME280;9558;50.178;8.370;2023-07-13T05:00:14;98252.28;;;13.55;87.54
18858;BME280;9558;50.178;8.370;2023-07-13T05:03:03;98242.78;;;13.69;85.79
18858;BME280;9558;50.178;8.370;2023-07-13T05:05:56;98242.03;;;13.89;82.43
18858;BME280;9558;50.178;8.370;2023-07-13T05:08:43;98244.94;;;14.14;82.59
18858;BME280;9558;50.178;8.370;2023-07-13T05:11:30;98250.19;;;14.41;81.39
18858;BME280;9558;50.178;8.370;2023-07-13T05:14:17;98245.81;;;14.61;80.17
18858;BME280;9558;50.178;8.370;2023-07-13T05:17:05;98257.69;;;14.84;79.01
18858;BME280;9558;50.178;8.370;2023-07-13T05:19:52;98256.69;;;15.05;77.36
18858;BME280;9558;50.178;8.370;2023-07-13T05:22:39;98257.66;;;15.24;76.82
18858;BME280;9558;50.178;8.370;2023-07-13T05:25:26;98271.84;;;15.42;76.00
18858;BME280;9558;50.178;8.370;2023-07-13T05:28:12;98270.81;;;15.56;75.99
18858;BME280;9558;50.178;8.370;2023-07-13T05:30:59;98269.97;;;15.69;75.97
18858;BME280;9558;50.178;8.370;2023-07-13T05:33:47;98275.63;;;15.79;76.04
18858;BME280;9558;50.178;8.370;2023-07-13T05:36:34;98287.03;;;15.85;75.88
18858;BME280;9558;50.178;8.370;2023-07-13T05:39:21;98282.41;;;15.87;75.86
18858;BME280;9558;50.178;8.370;2023-07-13T05:42:08;98284.38;;;15.92;75.95
18858;BME280;9558;50.178;8.370;2023-07-13T05:44:55;98282.00;;;15.90;75.83
18858;BME280;9558;50.178;8.370;2023-07-13T05:47:41;98277.16;;;15.94;75.67
18858;BME280;9558;50.178;8.370;2023-07-13T05:50:30;98279.94;;;15.99;75.46
18858;BME280;9558;50.178;8.370;2023-07-13T05:53:17;98279.94;;;16.05;74.61
18858;BME280;9558;50.178;8.370;2023-07-13T05:56:04;98277.09;;;16.14;74.05
18858;BME280;9558;50.178;8.370;2023-07-13T05:58:51;98284.03;;;16.27;73.82
18858;BME280;9558;50.178;8.370;2023-07-13T06:01:38;98278.38;;;16.36;73.68
18858;BME280;9558;50.178;8.370;2023-07-13T06:04:24;98287.13;;;16.49;72.85
18858;BME280;9558;50.178;8.370;2023-07-13T06:07:12;98282.84;;;16.61;72.57
18858;BME280;9558;50.178;8.370;2023-07-13T06:09:59;98290.00;;;16.72;70.96
18858;BME280;9558;50.178;8.370;2023-07-13T06:12:46;98286.47;;;16.92;71.50
18858;BME280;9558;50.178;8.370;2023-07-13T06:15:33;98292.91;;;17.15;71.39
18858;BME280;9558;50.178;8.370;2023-07-13T06:18:20;98301.13;;;17.43;70.63
18858;BME280;9558;50.178;8.370;2023-07-13T06:21:08;98297.94;;;17.78;70.32
18858;BME280;9558;50.178;8.370;2023-07-13T06:23:56;98305.03;;;18.27;68.87
18858;BME280;9558;50.178;8.370;2023-07-13T06:26:43;98296.22;;;18.82;68.41
18858;BME280;9558;50.178;8.370;2023-07-13T06:29:29;98305.59;;;19.49;65.97
18858;BME280;9558;50.178;8.370;2023-07-13T06:32:17;98307.78;;;20.16;64.13
18858;BME280;9558;50.178;8.370;2023-07-13T06:35:04;98307.41;;;20.99;58.82
18858;BME280;9558;50.178;8.370;2023-07-13T06:37:51;98318.28;;;21.81;53.75
18858;BME280;9558;50.178;8.370;2023-07-13T06:40:39;98312.94;;;22.70;54.05
18858;BME280;9558;50.178;8.370;2023-07-13T06:43:26;98313.75;;;23.45;52.26
18858;BME280;9558;50.178;8.370;2023-07-13T06:46:13;98317.00;;;24.26;50.37
18858;BME280;9558;50.178;8.370;2023-07-13T06:49:00;98313.13;;;25.06;48.04
18858;BME280;9558;50.178;8.370;2023-07-13T06:51:47;98324.41;;;25.68;44.27
18858;BME280;9558;50.178;8.370;2023-07-13T06:54:35;98340.69;;;26.17;39.90
18858;BME280;9558;50.178;8.370;2023-07-13T06:57:23;98330.81;;;26.67;41.25
18858;BME280;9558;50.178;8.370;2023-07-13T07:00:11;98333.25;;;26.98;40.49
18858;BME280;9558;50.178;8.370;2023-07-13T07:02:58;98340.41;;;27.32;40.34
18858;BME280;9558;50.178;8.370;2023-07-13T07:05:45;98333.19;;;27.62;39.88
18858;BME280;9558;50.178;8.370;2023-07-13T07:08:31;98339.28;;;27.87;39.04
18858;BME280;9558;50.178;8.370;2023-07-13T07:11:21;98336.09;;;28.09;37.86
18858;BME280;9558;50.178;8.370;2023-07-13T07:14:10;98338.91;;;28.18;36.99
18858;BME280;9558;50.178;8.370;2023-07-13T07:16:57;98333.53;;;28.23;35.38
18858;BME280;9558;50.178;8.370;2023-07-13T07:19:44;98344.16;;;28.42;36.45
18858;BME280;9558;50.178;8.370;2023-07-13T07:22:31;98347.91;;;28.60;35.99
18858;BME280;9558;50.178;8.370;2023-07-13T07:25:18;98342.53;;;28.65;34.97
18858;BME280;9558;50.178;8.370;2023-07-13T07:28:05;98341.38;;;28.71;35.49
18858;BME280;9558;50.178;8.370;2023-07-13T07:30:55;98344.81;;;28.91;34.16
18858;BME280;9558;50.178;8.370;2023-07-13T07:33:42;98337.28;;;29.26;34.79
18858;BME280;9558;50.178;8.370;2023-07-13T07:36:29;98346.81;;;29.60;34.99
18858;BME280;9558;50.178;8.370;2023-07-13T07:39:15;98345.00;;;29.69;33.72
18858;BME280;9558;50.178;8.370;2023-07-13T07:42:02;98353.53;;;29.99;33.71
18858;BME280;9558;50.178;8.370;2023-07-13T07:44:49;98349.00;;;30.36;33.79
18858;BME280;9558;50.178;8.370;2023-07-13T07:47:37;98359.38;;;30.74;33.11
18858;BME280;9558;50.178;8.370;2023-07-13T07:50:24;98364.28;;;31.04;32.25
18858;BME280;9558;50.178;8.370;2023-07-13T07:53:11;98363.34;;;31.31;31.42
18858;BME280;9558;50.178;8.370;2023-07-13T07:55:58;98365.00;;;31.49;31.51
18858;BME280;9558;50.178;8.370;2023-07-13T07:58:45;98360.72;;;31.80;29.97
18858;BME280;9558;50.178;8.370;2023-07-13T08:01:31;98366.56;;;31.91;30.03
18858;BME280;9558;50.178;8.370;2023-07-13T08:04:19;98348.69;;;32.44;30.06
18858;BME280;9558;50.178;8.370;2023-07-13T08:07:08;98362.72;;;32.49;29.65
18858;BME280;9558;50.178;8.370;2023-07-13T08:09:55;98350.91;;;32.68;29.05
18858;BME280;9558;50.178;8.370;2023-07-13T08:12:42;98354.06;;;32.79;28.74
18858;BME280;9558;50.178;8.370;2023-07-13T08:15:28;98361.31;;;32.69;28.53
18858;BME280;9558;50.178;8.370;2023-07-13T08:18:15;98355.81;;;32.48;28.78
18858;BME280;9558;50.178;8.370;2023-07-13T08:21:05;98359.25;;;32.22;29.27
18858;BME280;9558;50.178;8.370;2023-07-13T08:23:52;98358.44;;;32.22;29.06
18858;BME280;9558;50.178;8.370;2023-07-13T08:26:39;98356.09;;;32.20;29.28
18858;BME280;9558;50.178;8.370;2023-07-13T08:29:25;98364.84;;;31.95;28.95
18858;BME280;9558;50.178;8.370;2023-07-13T08:32:12;98356.16;;;31.89;29.68
18858;BME280;9558;50.178;8.370;2023-07-13T08:34:59;98360.75;;;31.48;29.74
18858;BME280;9558;50.178;8.370;2023-07-13T08:37:47;98364.09;;;31.23;29.71
18858;BME280;9558;50.178;8.370;2023-07-13T08:40:34;98364.84;;;30.92;29.57
18858;BME280;9558;50.178;8.370;2023-07-13T08:43:25;98362.88;;;30.83;30.35
18858;BME280;9558;50.178;8.370;2023-07-13T08:46:16;98357.28;;;31.16;30.79
18858;BME280;9558;50.178;8.370;2023-07-13T08:49:09;98352.34;;;31.64;30.14
18858;BME280;9558;50.178;8.370;2023-07-13T08:52:02;98355.88;;;31.91;29.73
18858;BME280;9558;50.178;8.370;2023-07-13T08:54:52;98352.78;;;32.24;28.55
18858;BME280;9558;50.178;8.370;2023-07-13T08:57:42;98355.00;;;32.39;26.94
18858;BME280;9558;50.178;8.370;2023-07-13T09:00:42;98356.56;;;32.66;26.80
18858;BME280;9558;50.178;8.370;2023-07-13T09:03:37;98363.97;;;32.78;27.37
18858;BME280;9558;50.178;8.370;2023-07-13T09:06:45;98356.72;;;32.87;27.12
18858;BME280;9558;50.178;8.370;2023-07-13T09:09:43;98358.75;;;32.99;27.08
18858;BME280;9558;50.178;8.370;2023-07-13T09:12:45;98370.88;;;33.14;27.07
18858;BME280;9558;50.178;8.370;2023-07-13T09:15:37;98369.13;;;33.27;26.34
18858;BME280;9558;50.178;8.370;2023-07-13T09:18:28;98371.31;;;33.25;26.20
18858;BME280;9558;50.178;8.370;2023-07-13T09:21:20;98362.34;;;33.12;25.76
18858;BME280;9558;50.178;8.370;2023-07-13T09:24:28;98360.66;;;32.90;26.02
18858;BME280;9558;50.178;8.370;2023-07-13T09:27:17;98359.25;;;32.66;26.53
18858;BME280;9558;50.178;8.370;2023-07-13T09:30:26;98352.16;;;32.27;26.96
18858;BME280;9558;50.178;8.370;2023-07-13T09:33:14;98358.25;;;32.01;27.86
18858;BME280;9558;50.178;8.370;2023-07-13T09:36:01;98365.31;;;31.57;27.72
18858;BME280;9558;50.178;8.370;2023-07-13T09:38:48;98359.66;;;31.18;28.25
18858;BME280;9558;50.178;8.370;2023-07-13T09:41:40;98373.78;;;30.87;28.26
18858;BME280;9558;50.178;8.370;2023-07-13T09:44:30;98365.41;;;30.43;29.03
18858;BME280;9558;50.178;8.370;2023-07-13T09:47:21;98368.06;;;30.07;29.35
18858;BME280;9558;50.178;8.370;2023-07-13T09:50:14;98356.50;;;29.84;29.88
18858;BME280;9558;50.178;8.370;2023-07-13T09:53:02;98359.75;;;29.53;30.22
18858;BME280;9558;50.178;8.370;2023-07-13T09:55:49;98364.94;;;29.30;30.79
18858;BME280;9558;50.178;8.370;2023-07-13T09:58:36;98356.47;;;29.09;30.93
18858;BME280;9558;50.178;8.370;2023-07-13T10:01:32;98357.63;;;28.89;31.31
18858;BME280;9558;50.178;8.370;2023-07-13T10:04:29;98351.50;;;28.69;31.44
18858;BME280;9558;50.178;8.370;2023-07-13T10:07:17;98344.25;;;28.56;31.57
18858;BME280;9558;50.178;8.370;2023-07-13T10:10:14;98349.72;;;28.45;32.66
18858;BME280;9558;50.178;8.370;2023-07-13T10:13:01;98342.72;;;28.31;31.96
18858;BME280;9558;50.178;8.370;2023-07-13T10:15:49;98350.66;;;28.17;32.82
18858;BME280;9558;50.178;8.370;2023-07-13T10:18:42;98337.47;;;28.06;33.12
18858;BME280;9558;50.178;8.370;2023-07-13T10:21:36;98357.53;;;27.93;33.22
18858;BME280;9558;50.178;8.370;2023-07-13T10:24:26;98350.22;;;27.85;32.90
18858;BME280;9558;50.178;8.370;2023-07-13T10:27:16;98352.25;;;27.69;33.14
18858;BME280;9558;50.178;8.370;2023-07-13T10:30:11;98353.91;;;27.65;33.48
18858;BME280;9558;50.178;8.370;2023-07-13T10:33:01;98348.31;;;27.67;33.01
18858;BME280;9558;50.178;8.370;2023-07-13T10:35:51;98354.06;;;27.50;31.83
18858;BME280;9558;50.178;8.370;2023-07-13T10:38:43;98345.69;;;27.37;32.79
18858;BME280;9558;50.178;8.370;2023-07-13T10:41:34;98346.34;;;27.19;33.45
18858;BME280;9558;50.178;8.370;2023-07-13T10:44:26;98349.41;;;27.02;32.69
18858;BME280;9558;50.178;8.370;2023-07-13T10:47:15;98355.84;;;26.96;33.57
18858;BME280;9558;50.178;8.370;2023-07-13T10:50:04;98343.41;;;26.91;33.53
18858;BME280;9558;50.178;8.370;2023-07-13T10:52:53;98345.59;;;26.84;34.14
18858;BME280;9558;50.178;8.370;2023-07-13T10:55:56;98357.28;;;26.83;33.75
18858;BME280;9558;50.178;8.370;2023-07-13T10:58:45;98338.16;;;26.81;33.57
18858;BME280;9558;50.178;8.370;2023-07-13T11:01:39;98359.97;;;26.78;33.68
18858;BME280;9558;50.178;8.370;2023-07-13T11:04:29;98357.00;;;26.84;33.52
18858;BME280;9558;50.178;8.370;2023-07-13T11:07:20;98346.84;;;26.92;33.23
18858;BME280;9558;50.178;8.370;2023-07-13T11:10:49;98351.31;;;26.96;33.53
18858;BME280;9558;50.178;8.370;2023-07-13T11:16:45;98339.03;;;27.05;32.66
18858;BME280;9558;50.178;8.370;2023-07-13T11:19:41;98345.50;;;26.94;32.27
18858;BME280;9558;50.178;8.370;2023-07-13T11:22:42;98338.56;;;26.98;32.25
18858;BME280;9558;50.178;8.370;2023-07-13T11:25:31;98343.88;;;26.98;31.95
18858;BME280;9558;50.178;8.370;2023-07-13T11:28:24;98326.34;;;26.97;32.31
18858;BME280;9558;50.178;8.370;2023-07-13T11:31:15;98329.16;;;27.11;32.55
18858;BME280;9558;50.178;8.370;2023-07-13T11:34:12;98341.03;;;27.19;32.60
18858;BME280;9558;50.178;8.370;2023-07-13T11:37:01;98327.63;;;27.34;32.76
18858;BME280;9558;50.178;8.370;2023-07-13T11:39:50;98339.75;;;27.46;32.45
18858;BME280;9558;50.178;8.370;2023-07-13T11:42:38;98328.31;;;27.69;33.10
18858;BME280;9558;50.178;8.370;2023-07-13T11:45:26;98317.50;;;27.85;33.04
18858;BME280;9558;50.178;8.370;2023-07-13T11:48:22;98341.72;;;27.83;32.44
18858;BME280;9558;50.178;8.370;2023-07-13T11:51:16;98343.31;;;27.84;31.89
18858;BME280;9558;50.178;8.370;2023-07-13T11:54:10;98326.44;;;27.94;31.55
18858;BME280;9558;50.178;8.370;2023-07-13T11:57:23;98335.66;;;28.02;32.24
18858;BME280;9558;50.178;8.370;2023-07-13T12:00:13;98334.81;;;28.06;32.08
18858;BME280;9558;50.178;8.370;2023-07-13T12:03:02;98342.06;;;28.01;32.08
18858;BME280;9558;50.178;8.370;2023-07-13T12:06:00;98339.22;;;27.92;32.68
18858;BME280;9558;50.178;8.370;2023-07-13T12:08:47;98342.28;;;27.80;32.47
18858;BME280;9558;50.178;8.370;2023-07-13T12:11:35;98347.03;;;27.59;32.41
18858;BME280;9558;50.178;8.370;2023-07-13T12:14:23;98339.00;;;27.40;32.46
18858;BME280;9558;50.178;8.370;2023-07-13T12:17:18;98348.53;;;27.12;32.73
18858;BME280;9558;50.178;8.370;2023-07-13T12:20:21;98358.22;;;26.97;32.84
18858;BME280;9558;50.178;8.370;2023-07-13T12:23:15;98355.69;;;26.82;33.63
18858;BME280;9558;50.178;8.370;2023-07-13T12:26:09;98356.81;;;26.76;34.22
18858;BME280;9558;50.178;8.370;2023-07-13T12:28:58;98356.56;;;26.72;34.03
18858;BME280;9558;50.178;8.370;2023-07-13T12:31:48;98356.91;;;26.55;33.76
18858;BME280;9558;50.178;8.370;2023-07-13T12:34:51;98363.38;;;26.44;34.06
18858;BME280;9558;50.178;8.370;2023-07-13T12:37:41;98353.88;;;26.32;33.88
18858;BME280;9558;50.178;8.370;2023-07-13T12:40:32;98359.22;;;26.22;33.85
18858;BME280;9558;50.178;8.370;2023-07-13T12:43:20;98363.78;;;26.11;34.09
18858;BME280;9558;50.178;8.370;2023-07-13T12:46:17;98366.19;;;26.08;34.80
18858;BME280;9558;50.178;8.370;2023-07-13T12:49:06;98363.03;;;26.00;35.45
18858;BME280;9558;50.178;8.370;2023-07-13T12:51:56;98369.38;;;25.94;35.43
18858;BME280;9558;50.178;8.370;2023-07-13T12:54:54;98359.88;;;25.88;34.94
18858;BME280;9558;50.178;8.370;2023-07-13T12:57:49;98349.50;;;25.92;35.58
18858;BME280;9558;50.178;8.370;2023-07-13T13:00:37;98363.03;;;25.95;35.39
18858;BME280;9558;50.178;8.370;2023-07-13T13:03:30;98364.88;;;26.00;35.98
18858;BME280;9558;50.178;8.370;2023-07-13T13:06:23;98364.31;;;25.98;36.47
18858;BME280;9558;50.178;8.370;2023-07-13T13:09:12;98376.28;;;26.00;36.52
18858;BME280;9558;50.178;8.370;2023-07-13T13:12:01;98373.63;;;26.06;36.37
18858;BME280;9558;50.178;8.370;2023-07-13T13:14:47;98373.28;;;26.17;36.31
18858;BME280;9558;50.178;8.370;2023-07-13T13:17:35;98371.97;;;26.20;36.19
18858;BME280;9558;50.178;8.370;2023-07-13T13:20:22;98374.59;;;26.25;36.39
18858;BME280;9558;50.178;8.370;2023-07-13T13:23:12;98374.59;;;26.25;36.23
18858;BME280;9558;50.178;8.370;2023-07-13T13:25:59;98386.28;;;26.24;36.44
18858;BME280;9558;50.178;8.370;2023-07-13T13:28:48;98378.59;;;26.17;36.20
18858;BME280;9558;50.178;8.370;2023-07-13T13:31:35;98375.13;;;26.22;36.69
18858;BME280;9558;50.178;8.370;2023-07-13T13:34:23;98385.72;;;26.27;36.93
18858;BME280;9558;50.178;8.370;2023-07-13T13:37:17;98393.69;;;26.27;36.78
18858;BME280;9558;50.178;8.370;2023-07-13T13:40:14;98389.47;;;26.21;37.05
18858;BME280;9558;50.178;8.370;2023-07-13T13:43:00;98386.34;;;26.09;37.30
18858;BME280;9558;50.178;8.370;2023-07-13T13:45:48;98388.50;;;25.91;37.19
18858;BME280;9558;50.178;8.370;2023-07-13T13:48:36;98392.75;;;25.82;37.98
18858;BME280;9558;50.178;8.370;2023-07-13T13:51:23;98396.50;;;25.76;37.42
18858;BME280;9558;50.178;8.370;2023-07-13T13:54:12;98400.75;;;25.77;37.31
18858;BME280;9558;50.178;8.370;2023-07-13T13:56:59;98399.69;;;25.73;37.26
18858;BME280;9558;50.178;8.370;2023-07-13T13:59:46;98390.13;;;25.66;37.53
18858;BME280;9558;50.178;8.370;2023-07-13T14:02:34;98392.28;;;25.64;37.47
18858;BME280;9558;50.178;8.370;2023-07-13T14:05:24;98399.69;;;25.67;38.21
18858;BME280;9558;50.178;8.370;2023-07-13T14:08:13;98399.16;;;25.76;38.33
18858;BME280;9558;50.178;8.370;2023-07-13T14:11:00;98398.88;;;25.82;37.93
18858;BME280;9558;50.178;8.370;2023-07-13T14:13:48;98400.44;;;25.83;37.46
18858;BME280;9558;50.178;8.370;2023-07-13T14:16:36;98406.00;;;25.87;37.73
18858;BME280;9558;50.178;8.370;2023-07-13T14:19:24;98402.31;;;25.88;37.42
18858;BME280;9558;50.178;8.370;2023-07-13T14:22:12;98395.66;;;25.85;37.54
18858;BME280;9558;50.178;8.370;2023-07-13T14:24:59;98400.69;;;25.87;37.74
18858;BME280;9558;50.178;8.370;2023-07-13T14:27:49;98399.66;;;25.83;37.56
18858;BME280;9558;50.178;8.370;2023-07-13T14:30:36;98408.41;;;25.78;36.96
18858;BME280;9558;50.178;8.370;2023-07-13T14:33:23;98403.38;;;25.72;37.59
18858;BME280;9558;50.178;8.370;2023-07-13T14:36:23;98410.00;;;25.69;37.42
18858;BME280;9558;50.178;8.370;2023-07-13T14:39:12;98406.31;;;25.70;37.68
18858;BME280;9558;50.178;8.370;2023-07-13T14:41:59;98408.16;;;25.75;37.76
18858;BME280;9558;50.178;8.370;2023-07-13T14:44:46;98410.25;;;25.78;37.61
18858;BME280;9558;50.178;8.370;2023-07-13T14:47:32;98406.81;;;25.72;37.47
18858;BME280;9558;50.178;8.370;2023-07-13T14:50:26;98406.59;;;25.63;37.12
18858;BME280;9558;50.178;8.370;2023-07-13T14:53:17;98401.81;;;25.60;37.35
18858;BME280;9558;50.178;8.370;2023-07-13T14:56:09;98409.25;;;25.58;37.30
18858;BME280;9558;50.178;8.370;2023-07-13T14:58:56;98396.53;;;25.50;37.09
18858;BME280;9558;50.178;8.370;2023-07-13T15:01:43;98399.72;;;25.52;37.37
18858;BME280;9558;50.178;8.370;2023-07-13T15:04:30;98399.19;;;25.55;37.13
18858;BME280;9558;50.178;8.370;2023-07-13T15:07:16;98390.72;;;25.58;37.20
18858;BME280;9558;50.178;8.370;2023-07-13T15:10:12;98393.88;;;25.60;37.28
18858;BME280;9558;50.178;8.370;2023-07-13T15:13:01;98402.38;;;25.57;36.58